Buxhansa — A8TQ5 — position and weather

sailwx.info

Track history (hours):
 
Tides and Currents Weather Stations Pressure Air Temp Water Temp Dewpoint Dewpoint Depression Visibility Wind Speed Wind Dir Waves Ship Positions

Buxhansa

Last reported at 2017-Sep-12 15:56 UTC. Time now 2017-Oct-23 02:55 UTC.
Position N 01°18' E 103°22'.
Warning: this ship's position is 40 days out of date.

Length 208 m; draft 11.3 m.

Type: Ship (hazmat cat A). MMSI: 636091849.

Date/timePositionNaut miles runAvg speedWind from/ knotsBaromVisibWave heightAir tempDewpointWater temp
2017-Sep-12 15:56N 01°18' E 103°22'715.5
2017-Sep-12 15:29N 01°14' E 103°28'5 9.4
2017-Sep-12 14:54N 01°17' E 103°33'4 9.3
2017-Sep-12 14:29N 01°21' E 103°33'0 0.4
2017-Sep-12 13:58N 01°21' E 103°33'0 0.0
2017-Sep-12 13:11N 01°21' E 103°33'0 0.0
2017-Sep-12 12:05N 01°21' E 103°33'0 0.0
2017-Sep-12 11:53N 01°21' E 103°33'0 0.0
2017-Sep-12 10:07N 01°21' E 103°33'0 0.0
2017-Sep-12 09:55N 01°21' E 103°33'0 0.0
2017-Sep-12 09:19N 01°21' E 103°33'0 0.0
2017-Sep-12 08:58N 01°21' E 103°33'0 0.0
2017-Sep-12 08:30N 01°21' E 103°33'0 0.0
2017-Sep-12 06:08N 01°21' E 103°33'0 0.0
2017-Sep-12 05:41N 01°21' E 103°33'0 0.0
2017-Sep-12 04:23N 01°21' E 103°33'0 0.0
2017-Sep-12 03:55N 01°21' E 103°33'0 0.0
2017-Sep-12 03:01N 01°21' E 103°33'0 0.0
2017-Sep-12 02:49N 01°21' E 103°33'0 0.0
2017-Sep-12 02:19N 01°21' E 103°33'0 0.0
2017-Sep-12 01:51N 01°21' E 103°33'0 0.0
2017-Sep-12 01:09N 01°21' E 103°33'0 0.0
2017-Sep-11 23:11N 01°21' E 103°33'0 0.0
2017-Sep-11 22:41N 01°21' E 103°33'0 0.0
2017-Sep-11 21:46N 01°21' E 103°33'0 0.0
2017-Sep-11 21:23N 01°21' E 103°33'0 0.0
2017-Sep-11 20:55N 01°21' E 103°33'0 0.0
2017-Sep-11 20:29N 01°21' E 103°33'0 0.0
2017-Sep-11 19:56N 01°21' E 103°33'0 0.0
2017-Sep-11 19:29N 01°21' E 103°33'0 0.0
2017-Sep-11 18:58N 01°21' E 103°33'0 0.0
2017-Sep-11 18:25N 01°21' E 103°33'0 0.0
2017-Sep-11 17:49N 01°21' E 103°33'0 0.0
2017-Sep-11 16:36N 01°21' E 103°33'0 0.0
2017-Sep-11 16:26N 01°21' E 103°33'0 0.0
2017-Sep-11 15:54N 01°21' E 103°33'0 0.0
2017-Sep-11 15:24N 01°21' E 103°33'0 0.0
2017-Sep-11 14:35N 01°21' E 103°33'0 0.0
2017-Sep-11 14:29N 01°21' E 103°33'0 0.0
2017-Sep-11 13:59N 01°21' E 103°33'0 0.0
2017-Sep-11 13:17N 01°21' E 103°33'0 0.0
2017-Sep-11 12:59N 01°21' E 103°33'0 0.0
2017-Sep-11 12:29N 01°21' E 103°33'0 0.0
2017-Sep-11 11:52N 01°21' E 103°33'0 0.0
2017-Sep-11 11:25N 01°21' E 103°33'0 0.0
2017-Sep-11 10:58N 01°21' E 103°33'1 2.9
2017-Sep-11 10:29N 01°20' E 103°33'4 8.0
2017-Sep-11 09:59N 01°16' E 103°33'3 5.5
2017-Sep-11 09:29N 01°13' E 103°33'0 1.0
2017-Sep-11 08:59N 01°13' E 103°33'1 1.2
2017-Sep-11 08:30N 01°13' E 103°34'1 1.9
2017-Sep-11 07:59N 01°13' E 103°35'2 4.5
2017-Sep-11 07:30N 01°12' E 103°37'2 3.4
2017-Sep-11 06:59N 01°12' E 103°39'3 5.5
2017-Sep-11 06:30N 01°13' E 103°41'510.9
2017-Sep-11 06:00N 01°16' E 103°46'1 2.2
2017-Sep-11 05:30N 01°15' E 103°47'0 0.0
2017-Sep-11 04:58N 01°15' E 103°47'0 0.0
2017-Sep-11 04:30N 01°15' E 103°47'0 0.0
2017-Sep-11 03:57N 01°15' E 103°47'0 0.0
2017-Sep-11 03:21N 01°15' E 103°47'0 0.0
2017-Sep-11 02:57N 01°15' E 103°47'0 0.0
2017-Sep-11 02:30N 01°15' E 103°47'0 0.0
2017-Sep-11 01:56N 01°15' E 103°47'0 0.0
2017-Sep-11 01:26N 01°15' E 103°47'0 0.0
2017-Sep-11 00:56N 01°15' E 103°47'0 0.0
2017-Sep-11 00:26N 01°15' E 103°47'0 0.0
2017-Sep-10 23:49N 01°15' E 103°47'0 0.0
2017-Sep-10 23:25N 01°15' E 103°47'0 0.0
2017-Sep-10 22:58N 01°15' E 103°47'0 0.0
2017-Sep-10 22:28N 01°15' E 103°47'0 0.0
2017-Sep-10 21:55N 01°15' E 103°47'0 0.0
2017-Sep-10 21:30N 01°15' E 103°47'0 0.0
2017-Sep-10 20:15N 01°15' E 103°47'0 0.0
2017-Sep-10 19:54N 01°15' E 103°47'0 0.0
2017-Sep-10 19:24N 01°15' E 103°47'0 0.0
2017-Sep-10 18:59N 01°15' E 103°47'0 0.0
2017-Sep-10 18:29N 01°15' E 103°47'0 0.0
2017-Sep-10 17:53N 01°15' E 103°47'0 0.0
2017-Sep-10 17:23N 01°15' E 103°47'0 0.0
2017-Sep-10 16:58N 01°15' E 103°47'0 0.0
2017-Sep-10 16:25N 01°15' E 103°47'0 0.0
2017-Sep-10 15:55N 01°15' E 103°47'0 0.0
2017-Sep-10 15:28N 01°15' E 103°47'0 0.0
2017-Sep-10 14:58N 01°15' E 103°47'0 0.0
2017-Sep-10 13:45N 01°15' E 103°47'0 0.0
2017-Sep-10 13:15N 01°15' E 103°47'0 0.0
2017-Sep-10 12:42N 01°15' E 103°47'0 0.0
2017-Sep-10 12:24N 01°15' E 103°47'0 0.0
2017-Sep-10 11:59N 01°15' E 103°47'0 0.0
2017-Sep-10 10:50N 01°15' E 103°47'0 0.0
2017-Sep-10 10:20N 01°15' E 103°47'0 0.0
2017-Sep-10 09:49N 01°15' E 103°47'0 0.0
2017-Sep-10 09:25N 01°15' E 103°47'0 0.0
2017-Sep-10 08:58N 01°15' E 103°47'0 0.0
2017-Sep-10 08:30N 01°15' E 103°47'0 0.0
2017-Sep-10 07:45N 01°15' E 103°47'0 0.0
2017-Sep-10 07:30N 01°15' E 103°47'0 0.0
2017-Sep-10 06:56N 01°15' E 103°47'0 0.0
2017-Sep-10 06:29N 01°15' E 103°47'0 0.0
2017-Sep-10 05:50N 01°15' E 103°47'0 0.0
2017-Sep-10 05:29N 01°15' E 103°47'0 0.0
2017-Sep-10 04:55N 01°15' E 103°47'0 0.0
2017-Sep-10 04:25N 01°15' E 103°47'0 0.0
2017-Sep-10 03:58N 01°15' E 103°47'1 1.2
2017-Sep-10 03:30N 01°15' E 103°46'5 9.5
2017-Sep-10 02:59N 01°13' E 103°42'611.9
2017-Sep-10 02:30N 01°13' E 103°36'4 7.6
2017-Sep-10 01:58N 01°11' E 103°32'4 7.8
2017-Sep-10 01:25N 01°11' E 103°28'  
Track history (hours):
 
Tides and Currents Weather Stations Pressure Air Temp Water Temp Dewpoint Dewpoint Depression Visibility Wind Speed Wind Dir Waves Ship Positions

Buxhansa

Last reported at 2017-Sep-12 15:56 UTC. Time now 2017-Oct-23 02:55 UTC.
Position N 01°18' E 103°22'.
Warning: this ship's position is 40 days out of date.

Length 208 m; draft 11.3 m.

Type: Ship (hazmat cat A). MMSI: 636091849.

Date/timePositionNaut miles runAvg speedWind from/ knotsBaromVisibWave heightAir tempDewpointWater temp
2017-Sep-12 15:56N 01°18' E 103°22'715.5
2017-Sep-12 15:29N 01°14' E 103°28'5 9.4
2017-Sep-12 14:54N 01°17' E 103°33'4 9.3
2017-Sep-12 14:29N 01°21' E 103°33'0 0.4
2017-Sep-12 13:58N 01°21' E 103°33'0 0.0
2017-Sep-12 13:11N 01°21' E 103°33'0 0.0
2017-Sep-12 12:05N 01°21' E 103°33'0 0.0
2017-Sep-12 11:53N 01°21' E 103°33'0 0.0
2017-Sep-12 10:07N 01°21' E 103°33'0 0.0
2017-Sep-12 09:55N 01°21' E 103°33'0 0.0
2017-Sep-12 09:19N 01°21' E 103°33'0 0.0
2017-Sep-12 08:58N 01°21' E 103°33'0 0.0
2017-Sep-12 08:30N 01°21' E 103°33'0 0.0
2017-Sep-12 06:08N 01°21' E 103°33'0 0.0
2017-Sep-12 05:41N 01°21' E 103°33'0 0.0
2017-Sep-12 04:23N 01°21' E 103°33'0 0.0
2017-Sep-12 03:55N 01°21' E 103°33'0 0.0
2017-Sep-12 03:01N 01°21' E 103°33'0 0.0
2017-Sep-12 02:49N 01°21' E 103°33'0 0.0
2017-Sep-12 02:19N 01°21' E 103°33'0 0.0
2017-Sep-12 01:51N 01°21' E 103°33'0 0.0
2017-Sep-12 01:09N 01°21' E 103°33'0 0.0
2017-Sep-11 23:11N 01°21' E 103°33'0 0.0
2017-Sep-11 22:41N 01°21' E 103°33'0 0.0
2017-Sep-11 21:46N 01°21' E 103°33'0 0.0
2017-Sep-11 21:23N 01°21' E 103°33'0 0.0
2017-Sep-11 20:55N 01°21' E 103°33'0 0.0
2017-Sep-11 20:29N 01°21' E 103°33'0 0.0
2017-Sep-11 19:56N 01°21' E 103°33'0 0.0
2017-Sep-11 19:29N 01°21' E 103°33'0 0.0
2017-Sep-11 18:58N 01°21' E 103°33'0 0.0
2017-Sep-11 18:25N 01°21' E 103°33'0 0.0
2017-Sep-11 17:49N 01°21' E 103°33'0 0.0
2017-Sep-11 16:36N 01°21' E 103°33'0 0.0
2017-Sep-11 16:26N 01°21' E 103°33'0 0.0
2017-Sep-11 15:54N 01°21' E 103°33'0 0.0
2017-Sep-11 15:24N 01°21' E 103°33'0 0.0
2017-Sep-11 14:35N 01°21' E 103°33'0 0.0
2017-Sep-11 14:29N 01°21' E 103°33'0 0.0
2017-Sep-11 13:59N 01°21' E 103°33'0 0.0
2017-Sep-11 13:17N 01°21' E 103°33'0 0.0
2017-Sep-11 12:59N 01°21' E 103°33'0 0.0
2017-Sep-11 12:29N 01°21' E 103°33'0 0.0
2017-Sep-11 11:52N 01°21' E 103°33'0 0.0
2017-Sep-11 11:25N 01°21' E 103°33'0 0.0
2017-Sep-11 10:58N 01°21' E 103°33'1 2.9
2017-Sep-11 10:29N 01°20' E 103°33'4 8.0
2017-Sep-11 09:59N 01°16' E 103°33'3 5.5
2017-Sep-11 09:29N 01°13' E 103°33'0 1.0
2017-Sep-11 08:59N 01°13' E 103°33'1 1.2
2017-Sep-11 08:30N 01°13' E 103°34'1 1.9
2017-Sep-11 07:59N 01°13' E 103°35'2 4.5
2017-Sep-11 07:30N 01°12' E 103°37'2 3.4
2017-Sep-11 06:59N 01°12' E 103°39'3 5.5
2017-Sep-11 06:30N 01°13' E 103°41'510.9
2017-Sep-11 06:00N 01°16' E 103°46'1 2.2
2017-Sep-11 05:30N 01°15' E 103°47'0 0.0
2017-Sep-11 04:58N 01°15' E 103°47'0 0.0
2017-Sep-11 04:30N 01°15' E 103°47'0 0.0
2017-Sep-11 03:57N 01°15' E 103°47'0 0.0
2017-Sep-11 03:21N 01°15' E 103°47'0 0.0
2017-Sep-11 02:57N 01°15' E 103°47'0 0.0
2017-Sep-11 02:30N 01°15' E 103°47'0 0.0
2017-Sep-11 01:56N 01°15' E 103°47'0 0.0
2017-Sep-11 01:26N 01°15' E 103°47'0 0.0
2017-Sep-11 00:56N 01°15' E 103°47'0 0.0
2017-Sep-11 00:26N 01°15' E 103°47'0 0.0
2017-Sep-10 23:49N 01°15' E 103°47'0 0.0
2017-Sep-10 23:25N 01°15' E 103°47'0 0.0
2017-Sep-10 22:58N 01°15' E 103°47'0 0.0
2017-Sep-10 22:28N 01°15' E 103°47'0 0.0
2017-Sep-10 21:55N 01°15' E 103°47'0 0.0
2017-Sep-10 21:30N 01°15' E 103°47'0 0.0
2017-Sep-10 20:15N 01°15' E 103°47'0 0.0
2017-Sep-10 19:54N 01°15' E 103°47'0 0.0
2017-Sep-10 19:24N 01°15' E 103°47'0 0.0
2017-Sep-10 18:59N 01°15' E 103°47'0 0.0
2017-Sep-10 18:29N 01°15' E 103°47'0 0.0
2017-Sep-10 17:53N 01°15' E 103°47'0 0.0
2017-Sep-10 17:23N 01°15' E 103°47'0 0.0
2017-Sep-10 16:58N 01°15' E 103°47'0 0.0
2017-Sep-10 16:25N 01°15' E 103°47'0 0.0
2017-Sep-10 15:55N 01°15' E 103°47'0 0.0
2017-Sep-10 15:28N 01°15' E 103°47'0 0.0
2017-Sep-10 14:58N 01°15' E 103°47'0 0.0
2017-Sep-10 13:45N 01°15' E 103°47'0 0.0
2017-Sep-10 13:15N 01°15' E 103°47'0 0.0
2017-Sep-10 12:42N 01°15' E 103°47'0 0.0
2017-Sep-10 12:24N 01°15' E 103°47'0 0.0
2017-Sep-10 11:59N 01°15' E 103°47'0 0.0
2017-Sep-10 10:50N 01°15' E 103°47'0 0.0
2017-Sep-10 10:20N 01°15' E 103°47'0 0.0
2017-Sep-10 09:49N 01°15' E 103°47'0 0.0
2017-Sep-10 09:25N 01°15' E 103°47'0 0.0
2017-Sep-10 08:58N 01°15' E 103°47'0 0.0
2017-Sep-10 08:30N 01°15' E 103°47'0 0.0
2017-Sep-10 07:45N 01°15' E 103°47'0 0.0
2017-Sep-10 07:30N 01°15' E 103°47'0 0.0
2017-Sep-10 06:56N 01°15' E 103°47'0 0.0
2017-Sep-10 06:29N 01°15' E 103°47'0 0.0
2017-Sep-10 05:50N 01°15' E 103°47'0 0.0
2017-Sep-10 05:29N 01°15' E 103°47'0 0.0
2017-Sep-10 04:55N 01°15' E 103°47'0 0.0
2017-Sep-10 04:25N 01°15' E 103°47'0 0.0
2017-Sep-10 03:58N 01°15' E 103°47'1 1.2
2017-Sep-10 03:30N 01°15' E 103°46'5 9.5
2017-Sep-10 02:59N 01°13' E 103°42'611.9
2017-Sep-10 02:30N 01°13' E 103°36'4 7.6
2017-Sep-10 01:58N 01°11' E 103°32'4 7.8
2017-Sep-10 01:25N 01°11' E 103°28'  

Dump ship's entire track history